Terminal Aerodrome Forecast
Issued by NWS

Home | Current Version | Previous Version | Text Only | Print | Product List | Glossary On
Versions: 1 2 3 4 5 6 7 8 9 10 11 12 13 14 15 16 17 18
000
FTUS45 KRIW 281700
TAFJAC
TAF
KJAC 281732Z 2818/2918 VRB05KT P6SM VCSH SCT040
     FM282000 20006KT P6SM SCT024 BKN035
     FM290100 36006KT P6SM BKN050
     FM290700 36006KT P6SM VCFG FEW005 SCT050
     FM291400 VRB05KT P6SM SCT050
      AMD LTD TO CLD VIS AND WIND=

USA.gov is the U.S. government's official web portal to all federal, state and local government web resources and services.